This is the latest recevied weather packets stored in our database for station/object KO5MO-11. If no packets are shown the sender has not sent any weather packets the latest 10 day(s).
| Time | Temp. | Humidity | Pressure | Rain* | Wind** | Luminosity | Snow |
|---|---|---|---|---|---|---|---|
| 1777869872 | 23.89° C | 36% | 1008.2 hPa | - | - | 753 W/m² | - |
| 1777869272 | 24.44° C | 36% | 1008.1 hPa | - | - | 767 W/m² | - |
| 1777868672 | 26.11° C | 36% | 1008.2 hPa | - | - | 795 W/m² | - |
| 1777868073 | 23.89° C | 40% | 1007.9 hPa | - | - | 758 W/m² | - |
| 1777867472 | 23.89° C | 37% | 1007.6 hPa | - | - | 751 W/m² | - |
| 1777866872 | 24.44° C | 36% | 1007.5 hPa | - | - | 763 W/m² | - |
| 1777866272 | 26.11° C | 36% | 1007.3 hPa | - | - | 796 W/m² | - |
| 1777865672 | 24.44° C | 41% | 1006.9 hPa | - | - | 762 W/m² | - |
| 1777865072 | 23.89° C | 37% | 1006.6 hPa | - | - | 751 W/m² | - |
| 1777864472 | 23.89° C | 37% | 1006.5 hPa | - | - | 758 W/m² | - |
| 1777863872 | 26.11° C | 36% | 1006.4 hPa | - | - | 794 W/m² | - |
| 1777863272 | 24.44° C | 43% | 1006.1 hPa | - | - | 769 W/m² | - |
| 1777862672 | 23.33° C | 37% | 1005.7 hPa | - | - | 749 W/m² | - |
| 1777862072 | 23.89° C | 37% | 1005.6 hPa | - | - | 753 W/m² | - |
| 1777861472 | 24.44° C | 37% | 1005.4 hPa | - | - | 764 W/m² | - |
| 1777860872 | 26.11° C | 36% | 1005.2 hPa | - | - | 798 W/m² | - |
| 1777860272 | 24.44° C | 42% | 1005.2 hPa | - | - | 767 W/m² | - |
| 1777859672 | 23.89° C | 38% | 1004.7 hPa | - | - | 751 W/m² | - |
| 1777859073 | 23.89° C | 37% | 1004.7 hPa | - | - | 757 W/m² | - |
| 1777858472 | 24.44° C | 37% | 1004.6 hPa | - | - | 769 W/m² | - |
| 1777857872 | 26.11° C | 38% | 1004.5 hPa | - | - | 793 W/m² | - |
| 1777857272 | 23.89° C | 40% | 1004.6 hPa | - | - | 757 W/m² | - |
| 1777856672 | 23.89° C | 38% | 1004.6 hPa | - | - | 753 W/m² | - |
| 1777856072 | 23.89° C | 38% | 1004.5 hPa | - | - | 756 W/m² | - |
| 1777855472 | 24.44° C | 37% | 1004.6 hPa | - | - | 765 W/m² | - |
* Rain since midnight (hover to see other rain measurements)
** Current wind speed in m/s (hover to see current wind gust speed)